Latest Weather Observations for Eucla

IDW60801

Issued at 2:13 am WST Wednesday 13 November 2019 (issued every 10 minutes, with the page automatically refreshed every 10 minutes)

About weather observations | Map of weather stations | Latest weather observations for WA | Other Formats
Station Details ID: 011003 Name: EUCLA Lat: -31.68 Lon: 128.90 Height: 93.1 m
Data from the previous 72 hours. | See also: Recent months at Eucla
Date/Time
WST
Temp
°C
App
Temp
°C
Dew
Point
°C
Rel
Hum
%
Delta-T
°C
Wind Press
QNH
hPa
Press
MSL
hPa
Rain since
9am
mm
Dir  Spd
km/h
Gust
km/h
Spd
kts
Gust
kts
13/02:00am 13.8 11.0 6.9 63 3.3 SE 11 19 6 10 1026.5 1026.3 0.0
13/01:30am 13.4 10.1 6.5 63 3.3 ESE 13 20 7 11 1026.5 1026.3 0.0
13/01:00am 13.0 10.5 6.6 65 3.1 ESE 9 13 5 7 1026.5 1026.3 0.0
13/12:30am 12.9 10.3 6.3 64 3.2 ESE 9 19 5 10 1026.7 1026.5 0.0
13/12:00am 13.5 10.6 6.6 63 3.3 ESE 11 17 6 9 1027.2 1027.0 0.0
 
Date/Time
WST
Temp
°C
App
Temp
°C
Dew
Point
°C
Rel
Hum
%
Delta-T
°C
Wind Press
QNH
hPa
Press
MSL
hPa
Rain since
9am
mm
Dir  Spd
km/h
Gust
km/h
Spd
kts
Gust
kts
12/11:30pm 13.5 10.6 6.6 63 3.3 SE 11 15 6 8 1027.6 1027.4 0.0
12/11:00pm 13.1 10.2 6.5 64 3.1 ESE 11 17 6 9 1027.9 1027.7 0.0
12/10:30pm 12.9 10.0 6.3 64 3.2 SE 11 17 6 9 1028.1 1027.9 0.0
12/10:00pm 13.1 10.1 6.2 63 3.3 SE 11 15 6 8 1028.3 1028.1 0.0
12/09:30pm 13.1 10.1 6.0 62 3.4 SE 11 15 6 8 1028.4 1028.2 0.0
12/09:00pm 13.4 10.0 5.8 60 3.6 ESE 13 19 7 10 1028.7 1028.5 0.0
12/08:30pm 13.3 10.2 5.7 60 3.6 SE 11 17 6 9 1028.8 1028.6 0.0
12/08:00pm 13.3 10.2 5.7 60 3.6 SE 11 15 6 8 1028.6 1028.4 0.0
12/07:30pm 13.5 10.1 5.7 59 3.7 SE 13 20 7 11 1028.3 1028.1 0.0
12/07:00pm 13.8 10.4 5.9 59 3.7 SE 13 24 7 13 1028.1 1027.9 0.0
12/06:30pm 14.1 10.3 6.0 58 3.9 SSE 15 22 8 12 1027.9 1027.7 0.0
12/06:00pm 14.5 10.8 6.1 57 4.0 SE 15 22 8 12 1027.8 1027.6 0.0
12/05:30pm 15.0 11.6 5.8 54 4.4 SE 13 20 7 11 1027.3 1027.1 0.0
12/05:00pm 15.8 11.6 5.7 51 4.8 SE 17 24 9 13 1026.8 1026.6 0.0
12/04:30pm 16.4 12.2 5.7 49 5.2 SE 17 26 9 14 1026.4 1026.2 0.0
12/04:00pm 16.8 12.5 5.1 46 5.6 SSE 17 28 9 15 1026.1 1025.9 0.0
12/03:30pm 17.0 12.6 5.0 45 5.8 SSE 17 30 9 16 1025.7 1025.5 0.0
12/03:00pm 17.7 13.0 5.3 44 6.0 SE 19 30 10 16 1025.8 1025.6 0.0
12/02:30pm 17.6 13.0 5.5 45 5.9 SE 19 32 10 17 1025.7 1025.5 0.0
12/02:00pm 18.2 13.5 6.1 45 5.9 SE 20 32 11 17 1025.7 1025.5 0.0
12/01:30pm 18.3 13.5 5.5 43 6.3 SSE 20 32 11 17 1025.8 1025.6 0.0
12/01:00pm 18.7 14.1 5.5 42 6.4 SE 19 33 10 18 1025.7 1025.5 0.0
12/12:30pm 18.8 14.1 6.0 43 6.3 SE 20 33 11 18 1025.9 1025.7 0.0
12/12:00pm 18.2 13.5 6.1 45 5.9 SE 20 33 11 18 1025.9 1025.7 0.0
12/11:30am 18.9 14.4 6.1 43 6.4 SSE 19 35 10 19 1026.0 1025.8 0.0
12/11:00am 18.7 14.6 6.2 44 6.2 ESE 17 30 9 16 1026.1 1025.9 0.0
12/10:30am 18.8 14.6 5.6 42 6.5 SE 17 28 9 15 1026.1 1025.9 0.0
12/10:00am 18.0 14.2 5.6 44 6.0 SE 15 26 8 14 1026.2 1026.0 0.0
12/09:30am 17.8 13.5 5.4 44 6.0 SE 17 28 9 15 1026.1 1025.9 0.0
12/09:00am 18.3 13.7 5.5 43 6.2 SE 19 26 10 14 1026.0 1025.8 0.0
12/08:30am 17.8 13.5 5.4 44 6.0 SE 17 30 9 16 1025.6 1025.4 0.0
12/08:00am 16.7 12.0 6.2 50 5.1 SE 20 32 11 17 1025.3 1025.1 0.0
12/07:30am 16.6 12.4 5.6 48 5.3 SE 17 30 9 16 1025.0 1024.8 0.0
12/07:00am 16.1 11.1 4.8 47 5.3 SSE 20 32 11 17 1024.7 1024.5 0.0
12/06:30am 15.5 10.5 6.5 55 4.4 SSE 22 35 12 19 1024.2 1024.0 0.0
12/06:00am 14.6 10.0 6.7 59 3.8 SSE 20 32 11 17 1023.8 1023.6 0.0
12/05:30am 14.8 10.2 6.4 57 4.1 SSE 20 33 11 18 1023.3 1023.1 0.0
12/05:00am 14.3 10.0 6.9 61 3.6 SSE 19 30 10 16 1023.1 1022.9 0.0
12/04:30am 14.1 9.9 7.6 65 3.2 SSE 19 32 10 17 1022.9 1022.7 0.0
12/04:00am 14.1 9.6 8.7 70 2.7 SSE 22 33 12 18 1022.3 1022.1 0.0
12/03:30am 14.1 10.2 8.7 70 2.7 SSE 19 30 10 16 1021.9 1021.7 0.0
12/03:00am 14.4 9.6 7.2 62 3.5 S 22 32 12 17 1021.5 1021.3 0.0
12/02:30am 14.3 10.1 8.3 67 3.0 S 20 33 11 18 1021.1 1020.8 0.0
12/02:00am 14.2 9.7 7.0 62 3.5 S 20 30 11 16 1021.1 1020.8 0.0
12/01:30am 14.1 9.7 6.5 60 3.7 S 19 28 10 15 1021.2 1020.9 0.0
12/01:00am 13.9 9.3 6.3 60 3.6 S 20 30 11 16 1021.1 1020.8 0.0
12/12:30am 13.6 8.9 6.2 61 3.5 S 20 33 11 18 1021.0 1020.7 0.0
12/12:00am 13.8 8.8 6.4 61 3.6 S 22 33 12 18 1020.9 1020.6 0.0
 
Date/Time
WST
Temp
°C
App
Temp
°C
Dew
Point
°C
Rel
Hum
%
Delta-T
°C
Wind Press
QNH
hPa
Press
MSL
hPa
Rain since
9am
mm
Dir  Spd
km/h
Gust
km/h
Spd
kts
Gust
kts
11/11:30pm 13.8 9.2 6.4 61 3.6 S 20 32 11 17 1021.2 1020.9 0.0
11/11:00pm 14.0 9.4 6.4 60 3.7 S 20 33 11 18 1021.3 1021.0 0.0
11/10:30pm 14.2 10.0 7.3 63 3.4 S 19 32 10 17 1021.3 1021.0 0.0
11/10:00pm 14.1 9.5 6.7 61 3.6 S 20 33 11 18 1021.3 1021.0 0.0
11/09:30pm 14.2 9.8 7.3 63 3.4 SSE 20 33 11 18 1021.3 1021.0 0.0
11/09:00pm 14.0 9.5 7.1 63 3.4 SSE 20 32 11 17 1021.2 1020.9 0.0
11/08:30pm 14.3 9.8 7.1 62 3.5 S 20 32 11 17 1021.0 1020.7 0.0
11/08:00pm 14.6 10.0 8.1 65 3.3 SSE 22 37 12 20 1020.8 1020.5 0.0
11/07:30pm 14.6 10.2 7.6 63 3.5 S 20 33 11 18 1020.5 1020.2 0.0
11/07:00pm 14.4 10.2 7.5 63 3.4 S 19 33 10 18 1020.0 1019.7 0.0
11/06:30pm 14.5 9.8 7.8 64 3.3 S 22 39 12 21 1019.6 1019.3 0.0
11/06:00pm 14.9 10.2 7.9 63 3.5 S 22 37 12 20 1018.9 1018.7 0.0
11/05:30pm 15.2 10.3 8.4 64 3.4 S 24 37 13 20 1018.3 1018.1 0.0
11/05:00pm 15.5 9.8 8.5 63 3.6 S 28 41 15 22 1017.8 1017.6 0.0
11/04:30pm 15.7 10.1 8.7 63 3.6 S 28 43 15 23 1017.4 1017.2 0.0
11/04:00pm 16.2 11.2 9.4 64 3.5 S 26 41 14 22 1017.0 1016.8 0.0
11/03:30pm 16.9 11.8 9.1 60 4.1 S 26 39 14 21 1016.7 1016.5 0.0
11/03:00pm 18.0 12.5 9.1 56 4.7 S 28 43 15 23 1016.3 1016.1 0.0
11/02:30pm 17.4 11.3 9.6 60 4.1 S 32 50 17 27 1016.0 1015.8 0.0
11/02:03pm 17.4 11.8 10.1 62 3.9 SSW 30 48 16 26 1015.7 1015.5 0.0
11/02:00pm 17.3 11.0 9.7 61 4.0 SSW 33 48 18 26 1015.7 1015.5 0.0
11/01:34pm 17.0 11.8 10.1 64 3.7 SSW 28 46 15 25 1015.1 1014.9 0.0
11/01:30pm 17.1 11.5 10.2 64 3.7 SSW 30 44 16 24 1015.1 1014.9 0.0
11/01:00pm 17.2 11.8 10.8 66 3.4 SSW 30 48 16 26 1014.9 1014.7 0.0
11/12:37pm 17.8 12.1 11.1 65 3.6 SSW 32 50 17 27 1014.6 1014.4 0.0
11/12:30pm 17.3 12.2 11.8 70 3.0 SSW 30 44 16 24 1014.4 1014.2 0.0
11/12:03pm 16.8 11.6 12.9 78 2.2 SSW 32 52 17 28 1014.1 1013.9 0.0
11/12:00pm 16.8 11.6 12.7 77 2.3 SSW 32 48 17 26 1014.0 1013.8 0.0
11/11:32am 16.7 12.3 13.0 79 2.1 SSW 28 46 15 25 1013.8 1013.6 0.0
11/11:30am 16.7 12.4 13.2 80 2.0 SSW 28 44 15 24 1013.8 1013.6 0.0
11/11:00am 17.2 12.5 13.1 77 2.3 SSW 30 48 16 26 1013.0 1012.8 0.0
11/10:30am 17.2 12.2 13.3 78 2.2 SSW 32 50 17 27 1012.8 1012.6 0.0
11/10:11am 18.1 13.3 12.8 71 3.0 SSW 30 48 16 26 1012.5 1012.3 0.0
11/10:00am 18.7 13.6 13.1 70 3.2 SSW 32 46 17 25 1012.5 1012.3 0.0
11/09:40am 18.3 13.0 13.0 71 3.0 SW 33 52 18 28 1012.6 1012.4 0.0
11/09:30am 18.9 13.8 13.1 69 3.3 SW 32 48 17 26 1012.4 1012.2 0.0
11/09:00am 20.1 14.7 12.8 63 4.1 SW 33 52 18 28 1011.9 1011.6 0.0
11/08:33am 20.5 16.1 13.0 62 4.3 SW 28 52 15 28 1011.4 1011.1 0.0
11/08:30am 21.2 17.2 13.1 60 4.6 SW 26 48 14 26 1011.3 1011.0 0.0
11/08:16am 20.6 15.9 13.3 63 4.2 SW 30 48 16 26 1011.0 1010.7 0.0
11/08:00am 20.5 15.2 13.2 63 4.2 SW 33 46 18 25 1010.9 1010.6 0.0
11/07:36am 19.8 15.4 13.0 65 3.9 SW 28 46 15 25 1010.5 1010.2 0.0
11/07:30am 19.9 16.3 13.1 65 3.9 SW 24 41 13 22 1010.3 1010.0 0.0
11/07:06am 20.0 15.6 13.0 64 4.0 SW 28 48 15 26 1009.9 1009.6 0.0
11/07:00am 19.9 15.4 12.7 63 4.1 WSW 28 37 15 20 1009.8 1009.5 0.0
11/06:30am 21.0 16.9 12.7 59 4.7 SW 26 37 14 20 1009.2 1008.9 0.0
11/06:00am 20.0 15.8 12.3 61 4.3 SW 26 48 14 26 1008.6 1008.3 0.0
11/05:30am 19.9 16.6 11.7 59 4.6 WSW 20 33 11 18 1008.2 1007.9 0.0
11/05:00am 20.2 16.9 11.7 58 4.7 SW 20 33 11 18 1008.0 1007.7 0.0
11/04:30am 20.1 18.3 13.3 65 3.9 SSW 15 30 8 16 1007.3 1007.1 0.0
11/04:29am 20.1 18.4 13.6 66 3.7 SSW 15 30 8 16 1007.3 1007.1 0.0
11/04:00am 25.1 19.9 -11.4 8 13.7 WNW 11 22 6 12 1006.5 1006.3 0.0
11/03:30am 25.6 18.3 -11.1 8 13.9 W 22 37 12 20 1006.6 1006.4 0.0
11/03:10am 24.5 17.6 -10.4 9 13.2 NNW 20 33 11 18 1005.7 1005.5 0.0
11/03:00am 24.8 16.3 -11.7 8 13.6 N 28 35 15 19 1003.6 1003.4 0.0
11/02:30am 25.1 16.6 -11.4 8 13.6 N 28 37 15 20 1003.6 1003.4 0.0
11/02:00am 25.2 16.7 -11.4 8 13.8 N 28 43 15 23 1003.5 1003.3 0.0
11/01:30am 25.7 17.3 -11.0 8 13.9 N 28 41 15 22 1003.6 1003.4 0.0
11/01:00am 25.6 17.5 -11.1 8 13.9 N 26 35 14 19 1003.8 1003.6 0.0
11/12:30am 25.8 17.7 -10.9 8 14.0 N 26 35 14 19 1004.1 1003.9 0.0
11/12:00am 26.2 18.5 -10.6 8 14.2 N 24 37 13 20 1004.6 1004.4 0.0
 
Date/Time
WST
Temp
°C
App
Temp
°C
Dew
Point
°C
Rel
Hum
%
Delta-T
°C
Wind Press
QNH
hPa
Press
MSL
hPa
Rain since
9am
mm
Dir  Spd
km/h
Gust
km/h
Spd
kts
Gust
kts
10/11:30pm 26.3 18.3 -10.5 8 14.2 N 26 37 14 20 1005.3 1005.1 0.0
10/11:00pm 26.3 18.2 -12.2 7 14.4 N 26 35 14 19 1006.0 1005.8 0.0
10/10:30pm 26.3 18.6 -10.5 8 14.2 N 24 37 13 20 1006.5 1006.3 0.0
10/10:00pm 26.2 18.9 -10.6 8 14.2 N 22 30 12 16 1007.1 1006.9 0.0
10/09:30pm 23.9 17.2 -10.9 9 13.0 N 19 26 10 14 1007.3 1007.1 0.0
10/09:00pm 24.3 18.0 -10.6 9 13.2 NNE 17 22 9 12 1007.7 1007.5 0.0
10/08:30pm 23.3 17.4 -10.0 10 12.5 NNE 15 17 8 9 1008.3 1008.0 0.0
10/08:00pm 23.6 18.4 -6.4 13 12.2 NNE 13 15 7 8 1008.3 1008.0 0.0
10/07:30pm 24.1 19.2 -3.3 16 11.8 NNE 13 17 7 9 1008.3 1008.0 0.0
10/07:00pm 23.1 19.3 1.5 24 10.1 NE 11 13 6 7 1008.4 1008.1 0.0
10/06:30pm 23.8 20.1 2.6 25 10.2 NE 11 13 6 7 1008.5 1008.2 0.0
10/06:00pm 25.0 21.4 3.0 24 10.8 ENE 11 13 6 7 1008.3 1008.0 0.0
10/05:30pm 27.3 23.6 2.4 20 12.2 ENE 11 13 6 7 1008.2 1007.9 0.0
10/05:00pm 28.3 24.1 1.7 18 13.0 E 13 19 7 10 1008.4 1008.1 0.0
10/04:30pm 28.6 23.3 2.0 18 13.1 E 19 26 10 14 1008.7 1008.4 0.0
10/04:00pm 28.1 24.3 5.6 24 11.8 ESE 15 26 8 14 1009.1 1008.8 0.0
10/03:30pm 27.1 23.5 8.5 31 10.1 ESE 17 24 9 13 1009.3 1009.0 0.0
10/03:00pm 27.3 23.1 8.2 30 10.4 ESE 20 28 11 15 1009.6 1009.3 0.0
10/02:30pm 27.5 22.2 6.8 27 11.0 ESE 24 37 13 20 1010.2 1009.9 0.0
10/02:00pm 28.5 24.0 6.0 24 11.9 ESE 19 30 10 16 1010.7 1010.4 0.0
10/01:30pm 29.7 25.9 7.6 25 12.0 ESE 17 24 9 13 1010.9 1010.6 0.0
10/01:00pm 29.8 27.2 7.7 25 12.1 E 11 20 6 11 1011.5 1011.2 0.0
10/12:30pm 29.4 25.8 10.0 30 11.0 NNW 19 30 10 16 1012.1 1011.9 0.0
10/12:00pm 33.7 27.1 -8.8 6 18.1 N 19 32 10 17 1012.7 1012.5 0.0
10/11:30am 33.5 27.1 -7.0 7 17.7 N 19 33 10 18 1013.3 1013.1 0.0
10/11:00am 32.7 26.6 -7.6 7 17.3 N 17 26 9 14 1013.9 1013.7 0.0
10/10:30am 32.3 25.8 -6.1 8 16.9 N 20 33 11 18 1014.6 1014.4 0.0
10/10:00am 30.7 23.6 -4.4 10 15.7 N 24 35 13 19 1015.1 1014.9 0.0
10/09:30am 29.7 23.6 -2.7 12 14.8 N 20 35 11 19 1015.4 1015.2 0.0
10/09:00am 28.8 21.6 -2.3 13 14.2 N 26 35 14 19 1015.9 1015.7 0.0
10/08:30am 27.4 20.6 1.0 18 12.6 N 26 33 14 18 1016.3 1016.1 0.0
10/08:00am 24.7 17.6 1.6 22 11.0 N 28 43 15 23 1016.6 1016.4 0.0
10/07:30am 23.1 17.1 3.1 27 9.7 N 24 39 13 21 1017.2 1017.0 0.0
10/07:00am 20.0 14.7 4.9 37 7.4 NNE 22 33 12 18 1017.6 1017.4 0.0
10/06:30am 16.3 10.8 5.9 50 5.1 NNE 24 32 13 17 1017.9 1017.7 0.0
10/06:00am 14.4 9.4 6.3 58 3.9 NNE 22 33 12 18 1018.1 1017.9 0.0
10/05:30am 12.7 8.1 6.5 66 3.0 NNE 20 30 11 16 1018.1 1017.9 0.0
10/05:00am 11.3 6.7 6.4 72 2.3 NNE 20 30 11 16 1018.1 1017.9 0.0
10/04:30am 10.8 6.2 6.4 74 2.1 NNE 20 30 11 16 1018.0 1017.8 0.0
10/04:00am 10.9 6.3 6.5 74 2.1 NNE 20 28 11 15 1017.8 1017.6 0.0
10/03:30am 10.9 6.3 6.6 75 2.0 NNE 20 30 11 16 1017.7 1017.5 0.0
10/03:00am 11.2 6.6 6.7 74 2.1 NNE 20 30 11 16 1018.0 1017.8 0.0
10/02:30am 11.4 6.9 7.1 75 2.1 NNE 20 30 11 16 1018.3 1018.1 0.0

Other formats

Comma delimited format used in spreadsheet applications
http://www.bom.gov.au/fwo/IDW60801/IDW60801.94647.axf

JavaScript Object Notation format (JSON) in row-major order
http://www.bom.gov.au/fwo/IDW60801/IDW60801.94647.json

Data quality

Most of these data are generated automatically and are frequently updated. Quality checks on data are not normally performed. It is possible for incorrect values to appear. Refer to information at About Latest Weather Observations and please check the disclaimer before using these data.